sensor_id;sensor_type;location;lat;lon;timestamp;P1;durP1;ratioP1;P2;durP2;ratioP2
47429;SDS011;33181;49.246;7.372;2023-07-13T00:00:34;6.00;;;3.17;;
47429;SDS011;33181;49.246;7.372;2023-07-13T00:03:01;3.80;;;3.07;;
47429;SDS011;33181;49.246;7.372;2023-07-13T00:05:27;4.07;;;3.23;;
47429;SDS011;33181;49.246;7.372;2023-07-13T00:07:53;5.73;;;2.90;;
47429;SDS011;33181;49.246;7.372;2023-07-13T00:10:19;6.27;;;3.50;;
47429;SDS011;33181;49.246;7.372;2023-07-13T00:12:46;5.63;;;3.30;;
47429;SDS011;33181;49.246;7.372;2023-07-13T00:15:14;7.10;;;2.90;;
47429;SDS011;33181;49.246;7.372;2023-07-13T00:17:47;3.90;;;2.83;;
47429;SDS011;33181;49.246;7.372;2023-07-13T00:20:19;3.80;;;3.17;;
47429;SDS011;33181;49.246;7.372;2023-07-13T00:22:47;4.60;;;3.20;;
47429;SDS011;33181;49.246;7.372;2023-07-13T00:25:14;3.90;;;3.00;;
47429;SDS011;33181;49.246;7.372;2023-07-13T00:27:41;4.30;;;2.90;;
47429;SDS011;33181;49.246;7.372;2023-07-13T00:30:08;5.60;;;3.40;;
47429;SDS011;33181;49.246;7.372;2023-07-13T00:32:35;4.90;;;3.20;;
47429;SDS011;33181;49.246;7.372;2023-07-13T00:35:02;4.73;;;3.10;;
47429;SDS011;33181;49.246;7.372;2023-07-13T00:37:29;6.93;;;3.20;;
47429;SDS011;33181;49.246;7.372;2023-07-13T00:39:55;3.77;;;3.00;;
47429;SDS011;33181;49.246;7.372;2023-07-13T00:42:21;3.70;;;2.90;;
47429;SDS011;33181;49.246;7.372;2023-07-13T00:47:38;4.40;;;3.00;;
47429;SDS011;33181;49.246;7.372;2023-07-13T00:50:06;5.70;;;3.20;;
47429;SDS011;33181;49.246;7.372;2023-07-13T00:52:36;4.17;;;2.83;;
47429;SDS011;33181;49.246;7.372;2023-07-13T00:55:05;4.67;;;3.33;;
47429;SDS011;33181;49.246;7.372;2023-07-13T00:57:34;5.17;;;2.83;;
47429;SDS011;33181;49.246;7.372;2023-07-13T01:00:01;5.90;;;3.20;;
47429;SDS011;33181;49.246;7.372;2023-07-13T01:02:33;5.60;;;3.10;;
47429;SDS011;33181;49.246;7.372;2023-07-13T01:05:08;5.20;;;3.20;;
47429;SDS011;33181;49.246;7.372;2023-07-13T01:07:36;5.00;;;3.00;;
47429;SDS011;33181;49.246;7.372;2023-07-13T01:10:03;4.40;;;3.37;;
47429;SDS011;33181;49.246;7.372;2023-07-13T01:12:29;5.87;;;3.40;;
47429;SDS011;33181;49.246;7.372;2023-07-13T01:14:59;5.40;;;3.27;;
47429;SDS011;33181;49.246;7.372;2023-07-13T01:17:26;5.00;;;3.47;;
47429;SDS011;33181;49.246;7.372;2023-07-13T01:19:53;6.40;;;3.57;;
47429;SDS011;33181;49.246;7.372;2023-07-13T01:22:20;4.73;;;3.20;;
47429;SDS011;33181;49.246;7.372;2023-07-13T01:24:51;4.07;;;3.37;;
47429;SDS011;33181;49.246;7.372;2023-07-13T01:27:22;5.57;;;3.40;;
47429;SDS011;33181;49.246;7.372;2023-07-13T01:29:50;4.37;;;3.13;;
47429;SDS011;33181;49.246;7.372;2023-07-13T01:32:18;5.30;;;3.33;;
47429;SDS011;33181;49.246;7.372;2023-07-13T01:34:50;4.27;;;3.30;;
47429;SDS011;33181;49.246;7.372;2023-07-13T01:37:19;4.77;;;3.60;;
47429;SDS011;33181;49.246;7.372;2023-07-13T01:39:45;4.27;;;3.33;;
47429;SDS011;33181;49.246;7.372;2023-07-13T01:42:11;4.77;;;3.27;;
47429;SDS011;33181;49.246;7.372;2023-07-13T01:44:38;4.40;;;3.30;;
47429;SDS011;33181;49.246;7.372;2023-07-13T01:47:05;4.00;;;3.10;;
47429;SDS011;33181;49.246;7.372;2023-07-13T01:49:31;5.43;;;3.57;;
47429;SDS011;33181;49.246;7.372;2023-07-13T01:51:57;4.23;;;3.23;;
47429;SDS011;33181;49.246;7.372;2023-07-13T01:54:23;8.13;;;3.17;;
47429;SDS011;33181;49.246;7.372;2023-07-13T01:56:48;5.70;;;3.47;;
47429;SDS011;33181;49.246;7.372;2023-07-13T01:59:14;3.60;;;3.10;;
47429;SDS011;33181;49.246;7.372;2023-07-13T02:01:40;3.80;;;2.97;;
47429;SDS011;33181;49.246;7.372;2023-07-13T02:04:05;5.00;;;3.50;;
47429;SDS011;33181;49.246;7.372;2023-07-13T02:06:31;4.70;;;3.33;;
47429;SDS011;33181;49.246;7.372;2023-07-13T02:08:57;5.13;;;3.30;;
47429;SDS011;33181;49.246;7.372;2023-07-13T02:11:23;4.73;;;3.13;;
47429;SDS011;33181;49.246;7.372;2023-07-13T02:13:50;5.00;;;3.50;;
47429;SDS011;33181;49.246;7.372;2023-07-13T02:16:16;6.40;;;3.60;;
47429;SDS011;33181;49.246;7.372;2023-07-13T02:18:42;5.30;;;3.50;;
47429;SDS011;33181;49.246;7.372;2023-07-13T02:21:08;4.90;;;3.23;;
47429;SDS011;33181;49.246;7.372;2023-07-13T02:23:34;4.43;;;3.20;;
47429;SDS011;33181;49.246;7.372;2023-07-13T02:26:00;4.43;;;3.77;;
47429;SDS011;33181;49.246;7.372;2023-07-13T02:28:28;4.23;;;3.03;;
47429;SDS011;33181;49.246;7.372;2023-07-13T02:30:54;4.93;;;3.70;;
47429;SDS011;33181;49.246;7.372;2023-07-13T02:33:19;5.83;;;3.50;;
47429;SDS011;33181;49.246;7.372;2023-07-13T02:35:45;4.87;;;3.40;;
47429;SDS011;33181;49.246;7.372;2023-07-13T02:38:11;6.60;;;3.60;;
47429;SDS011;33181;49.246;7.372;2023-07-13T02:40:37;6.97;;;3.57;;
47429;SDS011;33181;49.246;7.372;2023-07-13T02:43:03;4.03;;;3.30;;
47429;SDS011;33181;49.246;7.372;2023-07-13T02:45:29;6.03;;;3.50;;
47429;SDS011;33181;49.246;7.372;2023-07-13T02:47:54;5.17;;;3.30;;
47429;SDS011;33181;49.246;7.372;2023-07-13T02:50:20;5.10;;;3.43;;
47429;SDS011;33181;49.246;7.372;2023-07-13T02:52:46;4.23;;;3.23;;
47429;SDS011;33181;49.246;7.372;2023-07-13T02:55:12;5.17;;;3.40;;
47429;SDS011;33181;49.246;7.372;2023-07-13T02:57:38;5.23;;;3.50;;
47429;SDS011;33181;49.246;7.372;2023-07-13T03:00:04;3.70;;;3.00;;
47429;SDS011;33181;49.246;7.372;2023-07-13T03:02:31;5.53;;;3.80;;
47429;SDS011;33181;49.246;7.372;2023-07-13T03:04:58;7.40;;;3.50;;
47429;SDS011;33181;49.246;7.372;2023-07-13T03:07:24;4.03;;;3.40;;
47429;SDS011;33181;49.246;7.372;2023-07-13T03:09:53;4.43;;;3.50;;
47429;SDS011;33181;49.246;7.372;2023-07-13T03:12:40;3.90;;;3.30;;
47429;SDS011;33181;49.246;7.372;2023-07-13T03:15:07;3.60;;;3.20;;
47429;SDS011;33181;49.246;7.372;2023-07-13T03:17:33;5.77;;;3.23;;
47429;SDS011;33181;49.246;7.372;2023-07-13T03:19:59;4.87;;;3.40;;
47429;SDS011;33181;49.246;7.372;2023-07-13T03:22:25;4.23;;;3.10;;
47429;SDS011;33181;49.246;7.372;2023-07-13T03:24:51;5.10;;;3.67;;
47429;SDS011;33181;49.246;7.372;2023-07-13T03:27:17;5.80;;;3.27;;
47429;SDS011;33181;49.246;7.372;2023-07-13T03:29:43;4.40;;;3.43;;
47429;SDS011;33181;49.246;7.372;2023-07-13T03:32:09;9.20;;;3.70;;
47429;SDS011;33181;49.246;7.372;2023-07-13T03:34:35;4.60;;;3.33;;
47429;SDS011;33181;49.246;7.372;2023-07-13T03:37:00;4.03;;;3.20;;
47429;SDS011;33181;49.246;7.372;2023-07-13T03:39:26;5.43;;;3.20;;
47429;SDS011;33181;49.246;7.372;2023-07-13T03:41:52;5.07;;;3.43;;
47429;SDS011;33181;49.246;7.372;2023-07-13T03:44:18;4.83;;;3.20;;
47429;SDS011;33181;49.246;7.372;2023-07-13T03:46:44;5.00;;;3.43;;
47429;SDS011;33181;49.246;7.372;2023-07-13T03:49:10;4.20;;;3.20;;
47429;SDS011;33181;49.246;7.372;2023-07-13T03:51:38;5.03;;;3.30;;
47429;SDS011;33181;49.246;7.372;2023-07-13T03:54:04;4.23;;;3.37;;
47429;SDS011;33181;49.246;7.372;2023-07-13T03:56:30;8.00;;;3.30;;
47429;SDS011;33181;49.246;7.372;2023-07-13T03:58:57;6.17;;;3.67;;
47429;SDS011;33181;49.246;7.372;2023-07-13T04:01:23;5.53;;;3.53;;
47429;SDS011;33181;49.246;7.372;2023-07-13T04:03:50;5.03;;;3.57;;
47429;SDS011;33181;49.246;7.372;2023-07-13T04:06:21;5.70;;;3.27;;
47429;SDS011;33181;49.246;7.372;2023-07-13T04:08:54;7.17;;;3.80;;
47429;SDS011;33181;49.246;7.372;2023-07-13T04:11:25;5.90;;;3.40;;
47429;SDS011;33181;49.246;7.372;2023-07-13T04:13:53;5.57;;;3.80;;
47429;SDS011;33181;49.246;7.372;2023-07-13T04:16:19;4.43;;;3.23;;
47429;SDS011;33181;49.246;7.372;2023-07-13T04:18:46;7.20;;;3.20;;
47429;SDS011;33181;49.246;7.372;2023-07-13T04:21:13;6.80;;;3.80;;
47429;SDS011;33181;49.246;7.372;2023-07-13T04:23:39;5.40;;;3.53;;
47429;SDS011;33181;49.246;7.372;2023-07-13T04:26:05;8.87;;;3.30;;
47429;SDS011;33181;49.246;7.372;2023-07-13T04:28:32;5.83;;;3.27;;
47429;SDS011;33181;49.246;7.372;2023-07-13T04:30:58;4.53;;;3.30;;
47429;SDS011;33181;49.246;7.372;2023-07-13T04:33:25;3.73;;;2.87;;
47429;SDS011;33181;49.246;7.372;2023-07-13T04:35:52;8.63;;;3.23;;
47429;SDS011;33181;49.246;7.372;2023-07-13T04:38:25;4.90;;;3.07;;
47429;SDS011;33181;49.246;7.372;2023-07-13T04:40:55;3.70;;;3.10;;
47429;SDS011;33181;49.246;7.372;2023-07-13T04:43:23;6.00;;;3.20;;
47429;SDS011;33181;49.246;7.372;2023-07-13T04:45:50;4.27;;;3.07;;
47429;SDS011;33181;49.246;7.372;2023-07-13T04:48:17;4.10;;;2.90;;
47429;SDS011;33181;49.246;7.372;2023-07-13T04:50:43;5.03;;;3.00;;
47429;SDS011;33181;49.246;7.372;2023-07-13T04:53:09;4.90;;;2.90;;
47429;SDS011;33181;49.246;7.372;2023-07-13T04:55:35;5.90;;;3.50;;
47429;SDS011;33181;49.246;7.372;2023-07-13T04:58:02;6.53;;;3.00;;
47429;SDS011;33181;49.246;7.372;2023-07-13T05:00:28;4.00;;;2.90;;
47429;SDS011;33181;49.246;7.372;2023-07-13T05:02:55;4.53;;;3.00;;
47429;SDS011;33181;49.246;7.372;2023-07-13T05:05:22;3.23;;;2.60;;
47429;SDS011;33181;49.246;7.372;2023-07-13T05:07:48;4.27;;;2.90;;
47429;SDS011;33181;49.246;7.372;2023-07-13T05:10:14;4.33;;;3.33;;
47429;SDS011;33181;49.246;7.372;2023-07-13T05:12:40;6.10;;;3.13;;
47429;SDS011;33181;49.246;7.372;2023-07-13T05:15:06;4.47;;;3.00;;
47429;SDS011;33181;49.246;7.372;2023-07-13T05:17:32;7.43;;;3.30;;
47429;SDS011;33181;49.246;7.372;2023-07-13T05:19:58;5.60;;;3.27;;
47429;SDS011;33181;49.246;7.372;2023-07-13T05:22:24;5.40;;;3.43;;
47429;SDS011;33181;49.246;7.372;2023-07-13T05:24:50;6.10;;;3.57;;
47429;SDS011;33181;49.246;7.372;2023-07-13T05:27:15;6.37;;;3.80;;
47429;SDS011;33181;49.246;7.372;2023-07-13T05:29:41;6.07;;;3.53;;
47429;SDS011;33181;49.246;7.372;2023-07-13T05:32:08;7.07;;;3.80;;
47429;SDS011;33181;49.246;7.372;2023-07-13T05:34:33;5.77;;;3.40;;
47429;SDS011;33181;49.246;7.372;2023-07-13T05:37:00;5.07;;;3.30;;
47429;SDS011;33181;49.246;7.372;2023-07-13T05:39:26;6.00;;;3.47;;
47429;SDS011;33181;49.246;7.372;2023-07-13T05:41:52;6.13;;;3.30;;
47429;SDS011;33181;49.246;7.372;2023-07-13T05:44:18;5.53;;;3.40;;
47429;SDS011;33181;49.246;7.372;2023-07-13T05:46:44;5.90;;;3.70;;
47429;SDS011;33181;49.246;7.372;2023-07-13T05:49:10;5.37;;;3.40;;
47429;SDS011;33181;49.246;7.372;2023-07-13T05:51:36;6.40;;;3.60;;
47429;SDS011;33181;49.246;7.372;2023-07-13T05:54:02;5.03;;;3.60;;
47429;SDS011;33181;49.246;7.372;2023-07-13T05:56:28;6.30;;;4.10;;
47429;SDS011;33181;49.246;7.372;2023-07-13T05:58:54;5.63;;;3.53;;
47429;SDS011;33181;49.246;7.372;2023-07-13T06:01:19;5.33;;;3.13;;
47429;SDS011;33181;49.246;7.372;2023-07-13T06:03:48;5.03;;;3.60;;
47429;SDS011;33181;49.246;7.372;2023-07-13T06:06:15;8.23;;;3.50;;
47429;SDS011;33181;49.246;7.372;2023-07-13T06:08:42;5.30;;;3.50;;
47429;SDS011;33181;49.246;7.372;2023-07-13T06:11:12;6.47;;;3.60;;
47429;SDS011;33181;49.246;7.372;2023-07-13T06:13:44;5.43;;;3.87;;
47429;SDS011;33181;49.246;7.372;2023-07-13T06:16:11;5.10;;;3.90;;
47429;SDS011;33181;49.246;7.372;2023-07-13T06:18:37;5.40;;;3.70;;
47429;SDS011;33181;49.246;7.372;2023-07-13T06:21:12;5.83;;;3.87;;
47429;SDS011;33181;49.246;7.372;2023-07-13T06:23:41;6.53;;;3.50;;
47429;SDS011;33181;49.246;7.372;2023-07-13T06:26:08;5.67;;;3.30;;
47429;SDS011;33181;49.246;7.372;2023-07-13T06:28:34;4.83;;;3.67;;
47429;SDS011;33181;49.246;7.372;2023-07-13T06:31:04;6.90;;;3.70;;
47429;SDS011;33181;49.246;7.372;2023-07-13T06:33:32;5.40;;;3.20;;
47429;SDS011;33181;49.246;7.372;2023-07-13T06:35:59;4.87;;;3.50;;
47429;SDS011;33181;49.246;7.372;2023-07-13T06:38:24;6.30;;;3.50;;
47429;SDS011;33181;49.246;7.372;2023-07-13T06:40:50;6.57;;;3.20;;
47429;SDS011;33181;49.246;7.372;2023-07-13T06:43:16;6.93;;;3.43;;
47429;SDS011;33181;49.246;7.372;2023-07-13T06:45:46;5.53;;;3.17;;
47429;SDS011;33181;49.246;7.372;2023-07-13T06:48:18;8.73;;;3.63;;
47429;SDS011;33181;49.246;7.372;2023-07-13T06:50:45;5.07;;;2.87;;
47429;SDS011;33181;49.246;7.372;2023-07-13T06:53:14;4.70;;;2.83;;
47429;SDS011;33181;49.246;7.372;2023-07-13T06:55:40;5.63;;;2.50;;
47429;SDS011;33181;49.246;7.372;2023-07-13T06:58:09;4.73;;;2.47;;
47429;SDS011;33181;49.246;7.372;2023-07-13T07:00:34;4.57;;;2.57;;
47429;SDS011;33181;49.246;7.372;2023-07-13T07:03:00;6.70;;;2.50;;
47429;SDS011;33181;49.246;7.372;2023-07-13T07:05:26;6.07;;;2.17;;
47429;SDS011;33181;49.246;7.372;2023-07-13T07:07:53;4.43;;;2.27;;
47429;SDS011;33181;49.246;7.372;2023-07-13T07:10:20;4.00;;;2.30;;
47429;SDS011;33181;49.246;7.372;2023-07-13T07:12:46;4.73;;;2.33;;
47429;SDS011;33181;49.246;7.372;2023-07-13T07:15:13;5.53;;;2.60;;
47429;SDS011;33181;49.246;7.372;2023-07-13T07:17:39;8.30;;;2.40;;
47429;SDS011;33181;49.246;7.372;2023-07-13T07:20:04;4.43;;;2.40;;
47429;SDS011;33181;49.246;7.372;2023-07-13T07:22:31;4.47;;;2.50;;
47429;SDS011;33181;49.246;7.372;2023-07-13T07:24:57;3.97;;;2.13;;
47429;SDS011;33181;49.246;7.372;2023-07-13T07:27:23;3.57;;;2.10;;
47429;SDS011;33181;49.246;7.372;2023-07-13T07:29:49;4.30;;;2.33;;
47429;SDS011;33181;49.246;7.372;2023-07-13T07:32:15;4.00;;;2.20;;
47429;SDS011;33181;49.246;7.372;2023-07-13T07:34:41;4.67;;;2.10;;
47429;SDS011;33181;49.246;7.372;2023-07-13T07:37:09;5.13;;;2.70;;
47429;SDS011;33181;49.246;7.372;2023-07-13T07:39:38;5.80;;;2.17;;
47429;SDS011;33181;49.246;7.372;2023-07-13T07:42:05;5.50;;;2.67;;
47429;SDS011;33181;49.246;7.372;2023-07-13T07:44:34;7.73;;;2.57;;
47429;SDS011;33181;49.246;7.372;2023-07-13T07:47:00;3.20;;;2.00;;
47429;SDS011;33181;49.246;7.372;2023-07-13T07:49:26;7.33;;;2.30;;
47429;SDS011;33181;49.246;7.372;2023-07-13T07:51:52;4.80;;;2.30;;
47429;SDS011;33181;49.246;7.372;2023-07-13T07:54:18;5.23;;;2.73;;
47429;SDS011;33181;49.246;7.372;2023-07-13T07:56:44;6.60;;;2.10;;
47429;SDS011;33181;49.246;7.372;2023-07-13T07:59:09;6.87;;;2.50;;
47429;SDS011;33181;49.246;7.372;2023-07-13T08:01:35;3.30;;;2.20;;
47429;SDS011;33181;49.246;7.372;2023-07-13T08:04:02;6.63;;;2.33;;
47429;SDS011;33181;49.246;7.372;2023-07-13T08:06:28;5.30;;;2.50;;
47429;SDS011;33181;49.246;7.372;2023-07-13T08:08:54;8.13;;;2.53;;
47429;SDS011;33181;49.246;7.372;2023-07-13T08:11:22;5.37;;;2.33;;
47429;SDS011;33181;49.246;7.372;2023-07-13T08:13:49;5.33;;;2.60;;
47429;SDS011;33181;49.246;7.372;2023-07-13T08:16:15;5.60;;;2.50;;
47429;SDS011;33181;49.246;7.372;2023-07-13T08:18:41;5.60;;;2.43;;
47429;SDS011;33181;49.246;7.372;2023-07-13T08:21:07;10.70;;;2.30;;
47429;SDS011;33181;49.246;7.372;2023-07-13T08:23:35;5.90;;;2.57;;
47429;SDS011;33181;49.246;7.372;2023-07-13T08:26:01;7.10;;;2.40;;
47429;SDS011;33181;49.246;7.372;2023-07-13T08:28:28;3.50;;;2.30;;
47429;SDS011;33181;49.246;7.372;2023-07-13T08:30:54;5.20;;;2.60;;
47429;SDS011;33181;49.246;7.372;2023-07-13T08:33:20;4.57;;;2.33;;
47429;SDS011;33181;49.246;7.372;2023-07-13T08:35:49;8.80;;;2.87;;
47429;SDS011;33181;49.246;7.372;2023-07-13T08:38:16;8.30;;;2.80;;
47429;SDS011;33181;49.246;7.372;2023-07-13T08:40:42;6.73;;;2.37;;
47429;SDS011;33181;49.246;7.372;2023-07-13T08:43:13;6.03;;;2.57;;
47429;SDS011;33181;49.246;7.372;2023-07-13T08:45:44;9.00;;;2.80;;
47429;SDS011;33181;49.246;7.372;2023-07-13T08:48:18;6.00;;;2.33;;
47429;SDS011;33181;49.246;7.372;2023-07-13T08:51:07;5.03;;;2.50;;
47429;SDS011;33181;49.246;7.372;2023-07-13T08:54:24;6.90;;;2.37;;
47429;SDS011;33181;49.246;7.372;2023-07-13T08:57:03;5.83;;;2.47;;
47429;SDS011;33181;49.246;7.372;2023-07-13T08:59:44;5.53;;;2.30;;
47429;SDS011;33181;49.246;7.372;2023-07-13T09:02:18;5.63;;;2.33;;
47429;SDS011;33181;49.246;7.372;2023-07-13T09:05:25;4.77;;;2.10;;
47429;SDS011;33181;49.246;7.372;2023-07-13T09:10:49;4.60;;;2.30;;
47429;SDS011;33181;49.246;7.372;2023-07-13T09:16:06;5.10;;;2.20;;
47429;SDS011;33181;49.246;7.372;2023-07-13T09:18:41;5.63;;;2.33;;
47429;SDS011;33181;49.246;7.372;2023-07-13T09:21:22;6.10;;;2.37;;
47429;SDS011;33181;49.246;7.372;2023-07-13T09:23:54;5.23;;;2.20;;
47429;SDS011;33181;49.246;7.372;2023-07-13T09:26:28;4.87;;;2.57;;
47429;SDS011;33181;49.246;7.372;2023-07-13T09:28:58;6.63;;;2.30;;
47429;SDS011;33181;49.246;7.372;2023-07-13T09:31:41;10.13;;;2.37;;
47429;SDS011;33181;49.246;7.372;2023-07-13T09:34:14;4.80;;;2.30;;
47429;SDS011;33181;49.246;7.372;2023-07-13T09:36:40;7.33;;;2.43;;
47429;SDS011;33181;49.246;7.372;2023-07-13T09:39:10;4.73;;;2.20;;
47429;SDS011;33181;49.246;7.372;2023-07-13T09:44:14;5.87;;;2.33;;
47429;SDS011;33181;49.246;7.372;2023-07-13T09:46:47;8.67;;;2.60;;
47429;SDS011;33181;49.246;7.372;2023-07-13T09:49:22;5.03;;;2.50;;
47429;SDS011;33181;49.246;7.372;2023-07-13T09:52:00;6.83;;;2.43;;
47429;SDS011;33181;49.246;7.372;2023-07-13T09:54:32;4.50;;;2.40;;
47429;SDS011;33181;49.246;7.372;2023-07-13T09:57:00;5.00;;;2.37;;
47429;SDS011;33181;49.246;7.372;2023-07-13T09:59:32;7.37;;;2.60;;
47429;SDS011;33181;49.246;7.372;2023-07-13T10:02:24;5.20;;;2.30;;
47429;SDS011;33181;49.246;7.372;2023-07-13T10:05:04;6.30;;;2.60;;
47429;SDS011;33181;49.246;7.372;2023-07-13T10:07:39;4.10;;;2.23;;
47429;SDS011;33181;49.246;7.372;2023-07-13T10:10:17;4.67;;;2.53;;
47429;SDS011;33181;49.246;7.372;2023-07-13T10:12:46;3.97;;;2.00;;
47429;SDS011;33181;49.246;7.372;2023-07-13T10:15:22;5.80;;;2.47;;
47429;SDS011;33181;49.246;7.372;2023-07-13T10:17:54;6.40;;;2.30;;
47429;SDS011;33181;49.246;7.372;2023-07-13T10:20:23;5.30;;;2.30;;
47429;SDS011;33181;49.246;7.372;2023-07-13T10:22:55;4.40;;;2.27;;
47429;SDS011;33181;49.246;7.372;2023-07-13T10:25:32;5.27;;;2.87;;
47429;SDS011;33181;49.246;7.372;2023-07-13T10:30:56;4.57;;;2.50;;
47429;SDS011;33181;49.246;7.372;2023-07-13T10:33:25;5.13;;;2.70;;
47429;SDS011;33181;49.246;7.372;2023-07-13T10:35:53;3.90;;;2.10;;
47429;SDS011;33181;49.246;7.372;2023-07-13T10:38:30;4.97;;;2.43;;
47429;SDS011;33181;49.246;7.372;2023-07-13T10:40:58;4.90;;;2.33;;
47429;SDS011;33181;49.246;7.372;2023-07-13T10:43:37;3.40;;;2.03;;
47429;SDS011;33181;49.246;7.372;2023-07-13T10:46:10;3.10;;;2.07;;
47429;SDS011;33181;49.246;7.372;2023-07-13T10:48:39;7.17;;;2.30;;
47429;SDS011;33181;49.246;7.372;2023-07-13T10:51:07;5.20;;;2.50;;
47429;SDS011;33181;49.246;7.372;2023-07-13T10:53:36;3.73;;;2.17;;
47429;SDS011;33181;49.246;7.372;2023-07-13T10:56:06;3.23;;;2.47;;
47429;SDS011;33181;49.246;7.372;2023-07-13T10:59:10;4.43;;;2.40;;
47429;SDS011;33181;49.246;7.372;2023-07-13T11:01:53;6.70;;;2.10;;
47429;SDS011;33181;49.246;7.372;2023-07-13T11:04:44;5.83;;;2.50;;
47429;SDS011;33181;49.246;7.372;2023-07-13T11:07:26;3.50;;;2.23;;
47429;SDS011;33181;49.246;7.372;2023-07-13T11:09:58;5.00;;;2.73;;
47429;SDS011;33181;49.246;7.372;2023-07-13T11:15:13;4.67;;;2.33;;
47429;SDS011;33181;49.246;7.372;2023-07-13T11:17:53;5.63;;;2.47;;
47429;SDS011;33181;49.246;7.372;2023-07-13T11:20:39;8.87;;;2.77;;
47429;SDS011;33181;49.246;7.372;2023-07-13T11:23:15;4.00;;;2.20;;
47429;SDS011;33181;49.246;7.372;2023-07-13T11:25:56;6.20;;;2.27;;
47429;SDS011;33181;49.246;7.372;2023-07-13T11:28:24;6.30;;;2.50;;
47429;SDS011;33181;49.246;7.372;2023-07-13T11:33:21;4.63;;;2.40;;
47429;SDS011;33181;49.246;7.372;2023-07-13T11:35:58;7.50;;;2.50;;
47429;SDS011;33181;49.246;7.372;2023-07-13T11:38:32;3.63;;;2.17;;
47429;SDS011;33181;49.246;7.372;2023-07-13T11:41:03;5.87;;;2.23;;
47429;SDS011;33181;49.246;7.372;2023-07-13T11:43:37;5.93;;;2.30;;
47429;SDS011;33181;49.246;7.372;2023-07-13T11:48:58;4.90;;;2.40;;
47429;SDS011;33181;49.246;7.372;2023-07-13T11:51:28;4.10;;;2.10;;
47429;SDS011;33181;49.246;7.372;2023-07-13T11:54:04;3.73;;;2.07;;
47429;SDS011;33181;49.246;7.372;2023-07-13T11:56:45;6.20;;;2.20;;
47429;SDS011;33181;49.246;7.372;2023-07-13T11:59:11;8.87;;;2.37;;
47429;SDS011;33181;49.246;7.372;2023-07-13T12:01:43;4.53;;;2.10;;
47429;SDS011;33181;49.246;7.372;2023-07-13T12:06:55;3.80;;;2.30;;
47429;SDS011;33181;49.246;7.372;2023-07-13T12:12:56;4.70;;;1.90;;
47429;SDS011;33181;49.246;7.372;2023-07-13T12:15:38;4.37;;;2.00;;
47429;SDS011;33181;49.246;7.372;2023-07-13T12:18:13;4.97;;;2.17;;
47429;SDS011;33181;49.246;7.372;2023-07-13T12:20:49;4.87;;;2.30;;
47429;SDS011;33181;49.246;7.372;2023-07-13T12:25:52;4.53;;;1.93;;
47429;SDS011;33181;49.246;7.372;2023-07-13T12:28:20;5.50;;;2.30;;
47429;SDS011;33181;49.246;7.372;2023-07-13T12:30:57;7.13;;;2.07;;
47429;SDS011;33181;49.246;7.372;2023-07-13T12:33:29;5.23;;;2.50;;
47429;SDS011;33181;49.246;7.372;2023-07-13T12:35:58;4.07;;;2.00;;
47429;SDS011;33181;49.246;7.372;2023-07-13T12:38:29;4.80;;;2.33;;
47429;SDS011;33181;49.246;7.372;2023-07-13T12:40:57;6.20;;;2.37;;
47429;SDS011;33181;49.246;7.372;2023-07-13T12:43:23;4.30;;;2.10;;
47429;SDS011;33181;49.246;7.372;2023-07-13T12:48:29;4.23;;;2.27;;
47429;SDS011;33181;49.246;7.372;2023-07-13T12:51:03;4.43;;;2.10;;
47429;SDS011;33181;49.246;7.372;2023-07-13T12:53:29;3.33;;;2.10;;
47429;SDS011;33181;49.246;7.372;2023-07-13T12:55:58;3.10;;;2.10;;
47429;SDS011;33181;49.246;7.372;2023-07-13T12:58:32;3.73;;;2.00;;
47429;SDS011;33181;49.246;7.372;2023-07-13T13:01:09;6.37;;;2.37;;
47429;SDS011;33181;49.246;7.372;2023-07-13T13:03:39;4.73;;;2.40;;
47429;SDS011;33181;49.246;7.372;2023-07-13T13:08:43;5.10;;;2.50;;
47429;SDS011;33181;49.246;7.372;2023-07-13T13:11:13;3.80;;;2.07;;
47429;SDS011;33181;49.246;7.372;2023-07-13T13:13:42;3.33;;;2.13;;
47429;SDS011;33181;49.246;7.372;2023-07-13T13:16:12;4.03;;;2.40;;
47429;SDS011;33181;49.246;7.372;2023-07-13T13:18:44;5.50;;;2.30;;
47429;SDS011;33181;49.246;7.372;2023-07-13T13:21:10;4.27;;;2.23;;
47429;SDS011;33181;49.246;7.372;2023-07-13T13:23:36;4.97;;;2.77;;
47429;SDS011;33181;49.246;7.372;2023-07-13T13:26:02;4.90;;;2.10;;
47429;SDS011;33181;49.246;7.372;2023-07-13T13:28:34;7.00;;;2.87;;
47429;SDS011;33181;49.246;7.372;2023-07-13T13:30:59;8.30;;;2.70;;
47429;SDS011;33181;49.246;7.372;2023-07-13T13:33:25;3.90;;;2.43;;
47429;SDS011;33181;49.246;7.372;2023-07-13T13:35:51;4.83;;;2.57;;
47429;SDS011;33181;49.246;7.372;2023-07-13T13:38:17;2.80;;;1.90;;
47429;SDS011;33181;49.246;7.372;2023-07-13T13:40:50;5.40;;;2.10;;
47429;SDS011;33181;49.246;7.372;2023-07-13T13:43:17;6.63;;;2.23;;
47429;SDS011;33181;49.246;7.372;2023-07-13T13:45:51;5.93;;;2.40;;
47429;SDS011;33181;49.246;7.372;2023-07-13T13:48:19;5.60;;;2.37;;
47429;SDS011;33181;49.246;7.372;2023-07-13T13:50:57;8.83;;;2.80;;
47429;SDS011;33181;49.246;7.372;2023-07-13T13:53:24;5.87;;;2.60;;
47429;SDS011;33181;49.246;7.372;2023-07-13T13:55:50;4.30;;;2.43;;
47429;SDS011;33181;49.246;7.372;2023-07-13T13:58:17;4.13;;;2.30;;
47429;SDS011;33181;49.246;7.372;2023-07-13T14:00:44;4.20;;;2.20;;
47429;SDS011;33181;49.246;7.372;2023-07-13T14:03:14;5.70;;;2.43;;
47429;SDS011;33181;49.246;7.372;2023-07-13T14:05:44;5.67;;;2.30;;
47429;SDS011;33181;49.246;7.372;2023-07-13T14:08:16;4.00;;;2.20;;
47429;SDS011;33181;49.246;7.372;2023-07-13T14:10:45;6.10;;;2.60;;
47429;SDS011;33181;49.246;7.372;2023-07-13T14:13:24;4.03;;;2.50;;
47429;SDS011;33181;49.246;7.372;2023-07-13T14:15:57;6.33;;;2.77;;
47429;SDS011;33181;49.246;7.372;2023-07-13T14:18:24;10.33;;;2.47;;
47429;SDS011;33181;49.246;7.372;2023-07-13T14:20:50;4.40;;;2.00;;
47429;SDS011;33181;49.246;7.372;2023-07-13T14:23:17;4.23;;;2.30;;
47429;SDS011;33181;49.246;7.372;2023-07-13T14:25:43;3.53;;;2.23;;
47429;SDS011;33181;49.246;7.372;2023-07-13T14:28:23;3.90;;;2.33;;
47429;SDS011;33181;49.246;7.372;2023-07-13T14:30:51;4.80;;;2.30;;
47429;SDS011;33181;49.246;7.372;2023-07-13T14:33:19;8.43;;;2.20;;
47429;SDS011;33181;49.246;7.372;2023-07-13T14:35:46;3.20;;;2.30;;
47429;SDS011;33181;49.246;7.372;2023-07-13T14:38:13;5.63;;;2.03;;
47429;SDS011;33181;49.246;7.372;2023-07-13T14:40:43;6.20;;;2.30;;
47429;SDS011;33181;49.246;7.372;2023-07-13T14:43:10;3.30;;;1.97;;
47429;SDS011;33181;49.246;7.372;2023-07-13T14:45:38;4.13;;;2.50;;
47429;SDS011;33181;49.246;7.372;2023-07-13T14:48:19;5.20;;;2.03;;
47429;SDS011;33181;49.246;7.372;2023-07-13T14:50:50;4.93;;;2.40;;
47429;SDS011;33181;49.246;7.372;2023-07-13T14:53:21;6.30;;;2.60;;
47429;SDS011;33181;49.246;7.372;2023-07-13T14:55:48;4.60;;;2.23;;
47429;SDS011;33181;49.246;7.372;2023-07-13T14:58:14;5.73;;;2.03;;
47429;SDS011;33181;49.246;7.372;2023-07-13T15:00:40;2.77;;;2.17;;
47429;SDS011;33181;49.246;7.372;2023-07-13T15:03:08;5.23;;;2.30;;
47429;SDS011;33181;49.246;7.372;2023-07-13T15:05:49;7.33;;;2.17;;
47429;SDS011;33181;49.246;7.372;2023-07-13T15:08:18;6.37;;;2.33;;
47429;SDS011;33181;49.246;7.372;2023-07-13T15:10:43;3.33;;;2.10;;
47429;SDS011;33181;49.246;7.372;2023-07-13T15:15:52;4.17;;;2.47;;
47429;SDS011;33181;49.246;7.372;2023-07-13T15:18:19;5.90;;;2.00;;
47429;SDS011;33181;49.246;7.372;2023-07-13T15:20:48;4.77;;;2.40;;
47429;SDS011;33181;49.246;7.372;2023-07-13T15:23:17;4.83;;;2.37;;
47429;SDS011;33181;49.246;7.372;2023-07-13T15:25:44;3.27;;;2.20;;
47429;SDS011;33181;49.246;7.372;2023-07-13T15:28:11;5.20;;;2.17;;
47429;SDS011;33181;49.246;7.372;2023-07-13T15:30:49;3.83;;;1.97;;
47429;SDS011;33181;49.246;7.372;2023-07-13T15:33:27;3.90;;;2.20;;
47429;SDS011;33181;49.246;7.372;2023-07-13T15:35:55;5.50;;;2.00;;
47429;SDS011;33181;49.246;7.372;2023-07-13T15:38:24;4.13;;;2.33;;